Time;durP1;ratioP1;P1;durP2;ratioP2;P2;SDS_P1;SDS_P2;PMS_P1;PMS_P2;Temp;Humidity;BMP_temperature;BMP_pressure;BME280_temperature;BME280_humidity;BME280_pressure;Samples;Min_cycle;Max_cycle;Signal;HPM_P1;HPM_P2
2022/07/16 00:03:25;;;;;;;8.00;1.73;;;18.50;94.10;;;;;;4989775;28;20061;-68
2022/07/16 00:05:50;;;;;;;2.33;1.77;;;16.70;99.90;;;;;;4990209;28;20053;-68
2022/07/16 00:08:16;;;;;;;3.28;1.30;;;16.70;94.30;;;;;;4990078;28;20089;-68
2022/07/16 00:10:42;;;;;;;2.13;1.27;;;16.80;94.30;;;;;;4989974;28;20023;-67
2022/07/16 00:13:07;;;;;;;2.85;1.77;;;16.70;94.30;;;;;;4993227;28;20511;-68
2022/07/16 00:15:33;;;;;;;2.50;1.60;;;16.80;94.30;;;;;;4993574;28;20113;-67
2022/07/16 00:20:43;;;;;;;4.05;1.50;;;17.00;93.50;;;;;;4993963;28;20024;-68
2022/07/16 00:23:09;;;;;;;2.40;1.50;;;17.10;99.90;;;;;;5005183;28;20030;-68
2022/07/16 00:25:35;;;;;;;1.92;1.25;;;16.90;93.90;;;;;;5013256;28;20372;-68
2022/07/16 00:28:00;;;;;;;1.30;1.20;;;17.10;94.20;;;;;;5010619;28;20026;-68
2022/07/16 00:30:26;;;;;;;3.33;1.73;;;17.10;94.10;;;;;;5013030;28;20037;-68
2022/07/16 00:32:52;;;;;;;2.20;1.65;;;17.20;94.10;;;;;;5012994;28;20033;-67
2022/07/16 00:35:17;;;;;;;2.53;1.75;;;17.10;94.10;;;;;;5013169;28;20022;-67
2022/07/16 00:37:43;;;;;;;2.25;1.83;;;17.20;94.10;;;;;;5013051;28;20475;-67
2022/07/16 00:40:09;;;;;;;2.90;2.20;;;17.30;94.20;;;;;;5013640;28;20700;-67
2022/07/16 00:42:34;;;;;;;2.72;2.13;;;17.30;94.30;;;;;;5012829;28;20069;-67
2022/07/16 00:45:00;;;;;;;5.18;1.85;;;17.30;94.20;;;;;;5013293;28;20021;-67
2022/07/16 00:47:26;;;;;;;7.20;1.92;;;17.30;94.30;;;;;;5012401;28;20030;-67
2022/07/16 00:49:51;;;;;;;2.58;1.75;;;17.10;99.90;;;;;;5012869;28;20041;-67
2022/07/16 00:52:17;;;;;;;4.55;2.17;;;17.30;94.30;;;;;;5012812;28;20059;-67
2022/07/16 00:54:42;;;;;;;5.40;2.08;;;17.40;94.30;;;;;;5012644;28;20104;-68
2022/07/16 00:57:08;;;;;;;5.40;2.10;;;17.30;94.30;;;;;;5005402;28;20037;-67
2022/07/16 00:59:33;;;;;;;4.15;2.45;;;18.80;94.70;;;;;;5009587;28;20028;-67
2022/07/16 01:01:59;;;;;;;3.22;2.22;;;17.40;94.40;;;;;;5012437;28;20026;-68
2022/07/16 01:04:25;;;;;;;2.72;1.95;;;17.40;94.30;;;;;;5012501;28;20831;-68
2022/07/16 01:06:51;;;;;;;4.70;2.28;;;17.40;94.30;;;;;;5012593;28;20026;-67
2022/07/16 01:09:17;;;;;;;4.47;2.22;;;17.40;94.30;;;;;;5012616;28;20034;-67
2022/07/16 01:11:44;;;;;;;4.97;2.30;;;17.40;94.50;;;;;;5012020;28;20041;-67
2022/07/16 01:14:10;;;;;;;4.55;2.15;;;17.20;94.60;;;;;;5012481;28;20046;-67
2022/07/16 01:16:36;;;;;;;3.05;2.10;;;17.40;94.70;;;;;;5011910;28;20022;-67
2022/07/16 01:19:02;;;;;;;5.70;3.42;;;17.30;94.60;;;;;;5012691;28;20076;-67
2022/07/16 01:21:28;;;;;;;4.35;2.50;;;17.10;94.70;;;;;;4994536;28;20034;-67
2022/07/16 01:23:56;;;;;;;3.15;2.00;;;17.20;94.80;;;;;;5011225;28;20026;-67
2022/07/16 01:26:22;;;;;;;3.88;2.58;;;17.30;94.10;;;;;;5011289;28;20029;-67
2022/07/16 01:28:47;;;;;;;5.63;3.08;;;17.20;94.90;;;;;;5008060;28;20549;-67
2022/07/16 01:31:13;;;;;;;2.17;1.70;;;17.30;95.00;;;;;;5011559;28;20034;-67
2022/07/16 01:33:40;;;;;;;3.72;2.80;;;17.30;95.00;;;;;;5012156;28;20026;-67
2022/07/16 01:36:11;;;;;;;3.88;3.00;;;17.40;95.30;;;;;;5012533;28;20375;-67
2022/07/16 01:38:42;;;;;;;2.30;1.85;;;17.30;95.50;;;;;;5012094;28;20030;-67
2022/07/16 01:41:08;;;;;;;4.72;2.92;;;17.40;94.60;;;;;;4994500;28;20026;-68
2022/07/16 01:43:34;;;;;;;4.50;2.50;;;17.30;95.30;;;;;;5011790;28;20084;-67
2022/07/16 01:45:59;;;;;;;3.88;2.90;;;17.40;95.20;;;;;;5011627;28;20398;-67
2022/07/16 01:48:26;;;;;;;3.72;2.17;;;17.30;95.30;;;;;;5011873;28;20022;-67
2022/07/16 01:50:53;;;;;;;3.15;2.60;;;17.40;99.90;;;;;;5011604;28;20479;-67
2022/07/16 01:53:19;;;;;;;3.70;2.55;;;17.30;95.60;;;;;;5011776;28;20030;-67
2022/07/16 01:55:45;;;;;;;4.70;2.90;;;17.40;95.40;;;;;;5011603;28;20030;-67
2022/07/16 01:58:12;;;;;;;2.60;2.03;;;17.40;95.50;;;;;;4999304;28;20049;-67
2022/07/16 02:00:40;;;;;;;2.95;2.58;;;17.30;95.70;;;;;;5001827;28;20038;-67
2022/07/16 02:03:06;;;;;;;4.80;2.78;;;17.30;95.70;;;;;;5006619;28;20383;-67
2022/07/16 02:05:31;;;;;;;3.35;2.63;;;17.30;95.60;;;;;;5011399;28;20034;-67
2022/07/16 02:07:57;;;;;;;3.70;3.03;;;17.30;95.70;;;;;;5011476;28;20030;-67
2022/07/16 02:10:23;;;;;;;5.88;2.70;;;17.40;95.80;;;;;;5011274;28;20028;-68
2022/07/16 02:12:48;;;;;;;6.63;3.17;;;17.30;95.80;;;;;;5011072;28;20058;-67
2022/07/16 02:15:14;;;;;;;3.75;2.70;;;17.30;95.80;;;;;;5010798;28;20043;-67
2022/07/16 02:17:40;;;;;;;2.97;2.22;;;17.30;95.80;;;;;;5011280;28;20479;-67
2022/07/16 02:20:08;;;;;;;5.10;2.40;;;17.30;95.80;;;;;;5011327;28;20034;-68
2022/07/16 02:22:33;;;;;;;2.75;2.35;;;17.30;95.80;;;;;;5010642;28;20045;-67
2022/07/16 02:24:59;;;;;;;3.95;1.92;;;17.40;95.90;;;;;;5011408;28;20026;-67
2022/07/16 02:27:25;;;;;;;3.72;2.58;;;17.30;96.10;;;;;;5003925;28;20479;-67
2022/07/16 02:29:50;;;;;;;5.45;3.05;;;17.20;99.90;;;;;;5010672;28;20034;-67
2022/07/16 02:32:16;;;;;;;5.18;2.75;;;17.30;96.00;;;;;;5010725;28;20038;-67
2022/07/16 02:34:42;;;;;;;5.40;3.05;;;18.70;96.40;;;;;;5010892;28;20142;-67
2022/07/16 02:37:07;;;;;;;2.78;2.10;;;18.00;96.20;;;;;;5011047;28;20026;-67
2022/07/16 02:39:33;;;;;;;3.58;2.97;;;17.30;96.10;;;;;;4992917;28;20040;-67
2022/07/16 02:41:59;;;;;;;3.10;2.05;;;17.20;96.10;;;;;;5011074;28;20040;-67
2022/07/16 02:44:25;;;;;;;4.97;2.45;;;17.30;96.20;;;;;;5010170;28;20025;-67
2022/07/16 02:46:50;;;;;;;3.47;2.95;;;17.30;96.20;;;;;;5010775;28;20088;-67
2022/07/16 02:49:16;;;;;;;2.65;2.45;;;17.30;96.30;;;;;;5010531;28;20028;-67
2022/07/16 02:51:41;;;;;;;3.17;2.38;;;17.20;96.40;;;;;;5010532;28;20042;-67
2022/07/16 02:54:07;;;;;;;3.45;2.03;;;17.20;96.50;;;;;;5011056;28;20022;-67
2022/07/16 02:56:32;;;;;;;3.08;2.40;;;17.00;96.60;;;;;;5004041;28;20070;-67
2022/07/16 02:58:58;;;;;;;7.00;3.40;;;17.10;96.60;;;;;;4985328;28;20061;-67
2022/07/16 03:01:24;;;;;;;3.30;2.35;;;17.20;96.80;;;;;;5010345;28;20076;-67
2022/07/16 03:03:49;;;;;;;3.58;2.35;;;17.00;96.90;;;;;;5010502;28;20498;-67
2022/07/16 03:06:15;;;;;;;5.40;3.28;;;16.90;96.90;;;;;;5010299;28;20080;-68
2022/07/16 03:08:41;;;;;;;5.97;2.95;;;16.60;99.90;;;;;;5010368;28;20030;-67
2022/07/16 03:11:06;;;;;;;6.38;2.38;;;16.80;97.10;;;;;;5010390;28;20447;-67
2022/07/16 03:13:32;;;;;;;2.60;2.20;;;16.90;97.20;;;;;;5009617;28;20046;-67
2022/07/16 03:15:57;;;;;;;5.30;3.72;;;17.10;97.20;;;;;;5010579;28;20026;-67
2022/07/16 03:18:23;;;;;;;4.38;2.80;;;16.90;97.30;;;;;;5010140;28;20024;-67
2022/07/16 03:20:48;;;;;;;4.25;3.13;;;16.90;99.90;;;;;;5009836;28;20030;-67
2022/07/16 03:23:14;;;;;;;3.30;2.95;;;16.70;97.50;;;;;;5008921;28;20030;-67
2022/07/16 03:25:41;;;;;;;5.63;3.10;;;16.80;97.60;;;;;;5008499;28;20065;-67
2022/07/16 03:28:07;;;;;;;2.60;2.40;;;16.70;97.90;;;;;;5001189;28;20025;-67
2022/07/16 03:30:33;;;;;;;5.13;3.20;;;16.70;99.90;;;;;;5009525;28;20025;-67
2022/07/16 03:32:59;;;;;;;4.90;2.88;;;16.70;97.80;;;;;;5010393;28;20034;-67
2022/07/16 03:35:24;;;;;;;5.65;3.55;;;16.70;99.90;;;;;;5009875;28;20080;-67
2022/07/16 03:40:34;;;;;;;5.70;4.03;;;18.90;97.90;;;;;;5009212;28;20395;-67
2022/07/16 03:42:59;;;;;;;5.38;3.95;;;17.90;98.40;;;;;;5010330;28;20022;-67
2022/07/16 03:45:25;;;;;;;5.40;3.90;;;16.60;98.20;;;;;;5009900;28;20034;-67
2022/07/16 03:47:51;;;;;;;8.18;3.53;;;16.90;99.90;;;;;;5008841;28;20660;-67
2022/07/16 03:50:17;;;;;;;7.88;3.67;;;16.70;98.30;;;;;;5009520;28;20037;-67
2022/07/16 03:52:43;;;;;;;5.40;3.78;;;16.60;99.90;;;;;;5009684;28;20042;-68
2022/07/16 03:55:09;;;;;;;6.82;3.47;;;16.80;98.40;;;;;;5009775;28;20036;-67
2022/07/16 03:57:35;;;;;;;5.07;3.60;;;16.80;98.70;;;;;;5007182;28;20539;-67
2022/07/16 04:00:00;;;;;;;4.88;3.88;;;16.70;98.70;;;;;;5010068;28;20121;-67
2022/07/16 04:02:26;;;;;;;5.43;4.30;;;16.70;98.70;;;;;;5009759;28;20026;-67
2022/07/16 04:04:52;;;;;;;7.90;4.32;;;;;;;;;;5009458;28;20042;-67
2022/07/16 04:07:17;;;;;;;6.93;4.10;;;16.70;97.90;;;;;;5009715;28;20096;-67
2022/07/16 04:09:43;;;;;;;6.15;4.40;;;16.80;99.90;;;;;;5009102;28;20034;-68
2022/07/16 04:12:08;;;;;;;4.60;3.75;;;16.70;99.10;;;;;;5009782;28;20045;-67
2022/07/16 04:14:34;;;;;;;5.20;4.05;;;16.80;99.20;;;;;;5008508;28;20054;-67
2022/07/16 04:16:59;;;;;;;6.82;3.85;;;16.70;99.20;;;;;;4995131;28;20029;-67
2022/07/16 04:19:25;;;;;;;4.68;4.28;;;17.40;99.40;;;;;;4989882;28;20464;-67
2022/07/16 04:21:50;;;;;;;7.10;4.18;;;16.80;99.90;;;;;;4990348;28;20034;-67
2022/07/16 04:24:16;;;;;;;7.18;4.38;;;17.60;99.60;;;;;;5009151;28;20022;-67
2022/07/16 04:26:41;;;;;;;5.30;3.58;;;16.70;99.90;;;;;;5000178;28;20526;-67
2022/07/16 04:29:07;;;;;;;6.80;4.88;;;16.80;99.60;;;;;;5008321;28;20499;-67
2022/07/16 04:31:32;;;;;;;8.55;4.18;;;16.70;99.70;;;;;;5009230;28;20048;-67
2022/07/16 04:33:58;;;;;;;4.20;3.22;;;16.80;99.80;;;;;;5004502;28;20022;-67
2022/07/16 04:36:23;;;;;;;4.78;4.32;;;16.90;99.90;;;;;;5000672;28;20034;-67
2022/07/16 04:38:49;;;;;;;3.65;2.90;;;16.90;99.90;;;;;;4988726;28;20026;-67
2022/07/16 04:41:14;;;;;;;3.17;2.78;;;16.90;99.90;;;;;;4989837;28;20391;-67
2022/07/16 04:43:40;;;;;;;4.35;3.03;;;17.00;99.90;;;;;;4989730;28;20484;-68
2022/07/16 04:46:05;;;;;;;3.47;2.70;;;17.00;99.90;;;;;;4989990;28;20506;-67
2022/07/16 04:48:31;;;;;;;5.85;3.47;;;16.80;99.90;;;;;;4989540;28;20396;-67
2022/07/16 04:50:56;;;;;;;5.93;3.55;;;17.20;99.90;;;;;;4989709;28;20041;-67
2022/07/16 04:53:22;;;;;;;2.63;2.28;;;16.90;99.90;;;;;;4990133;28;20077;-67
2022/07/16 04:55:47;;;;;;;4.70;3.03;;;17.00;99.90;;;;;;4984047;28;20022;-67
2022/07/16 04:58:14;;;;;;;4.75;3.28;;;16.90;99.90;;;;;;4989846;28;20032;-67
2022/07/16 05:00:39;;;;;;;6.38;3.25;;;16.90;99.90;;;;;;4992934;28;20026;-67
2022/07/16 05:03:06;;;;;;;4.60;2.72;;;16.80;99.90;;;;;;4993107;28;20072;-67
2022/07/16 05:05:34;;;;;;;2.55;2.10;;;16.90;99.90;;;;;;4992800;28;20058;-67
2022/07/16 05:08:01;;;;;;;5.07;2.78;;;16.90;99.90;;;;;;4981854;28;20062;-67
2022/07/16 05:10:28;;;;;;;4.55;2.55;;;17.00;99.90;;;;;;4999881;28;20022;-67
2022/07/16 05:12:55;;;;;;;5.40;2.50;;;17.10;99.90;;;;;;4992568;28;20086;-67
2022/07/16 05:15:20;;;;;;;2.85;2.28;;;17.10;99.90;;;;;;4992831;28;20031;-67
2022/07/16 05:17:46;;;;;;;4.40;3.25;;;17.20;99.90;;;;;;4992624;28;20107;-67
2022/07/16 05:20:12;;;;;;;4.63;2.63;;;17.00;99.90;;;;;;4992167;28;20038;-67
2022/07/16 05:22:38;;;;;;;3.65;2.28;;;17.00;99.90;;;;;;5000434;28;20108;-67
2022/07/16 05:25:05;;;;;;;7.43;2.30;;;16.90;99.90;;;;;;4999236;28;20041;-67
2022/07/16 05:27:31;;;;;;;4.70;1.85;;;17.00;99.90;;;;;;4992769;28;20065;-67
2022/07/16 05:29:56;;;;;;;4.68;1.90;;;17.00;99.90;;;;;;4991249;28;20104;-67
2022/07/16 05:32:22;;;;;;;5.30;2.83;;;17.10;99.90;;;;;;4994634;28;20070;-67
2022/07/16 05:34:47;;;;;;;8.02;2.28;;;17.10;99.90;;;;;;5011883;28;20026;-67
2022/07/16 05:37:13;;;;;;;7.57;2.13;;;17.40;99.90;;;;;;4996103;28;20105;-67
2022/07/16 05:39:38;;;;;;;7.57;1.83;;;17.10;99.90;;;;;;4992178;28;20030;-67
2022/07/16 05:42:04;;;;;;;2.08;1.25;;;17.10;99.90;;;;;;5003768;28;20034;-67
2022/07/16 05:44:29;;;;;;;3.28;1.70;;;17.30;99.90;;;;;;4992645;28;20038;-67
2022/07/16 05:46:55;;;;;;;3.97;1.50;;;17.40;99.90;;;;;;4991880;28;20030;-67
2022/07/16 05:49:20;;;;;;;2.53;1.30;;;17.40;99.90;;;;;;5004010;28;20491;-67
2022/07/16 05:51:46;;;;;;;2.97;1.13;;;17.40;99.90;;;;;;4991576;28;20038;-67
2022/07/16 05:54:12;;;;;;;2.78;1.65;;;17.40;99.90;;;;;;4992117;28;20487;-67
2022/07/16 05:56:37;;;;;;;3.05;1.20;;;17.30;99.90;;;;;;4991949;28;20027;-68
2022/07/16 05:59:03;;;;;;;6.55;1.40;;;17.40;99.90;;;;;;4992312;28;20476;-67
2022/07/16 06:01:29;;;;;;;2.42;1.08;;;17.40;99.90;;;;;;4991620;28;20388;-67
2022/07/16 06:03:55;;;;;;;2.17;0.90;;;17.70;99.90;;;;;;4991976;28;20070;-67
2022/07/16 06:06:21;;;;;;;5.38;1.38;;;17.70;99.90;;;;;;4991220;28;20491;-68
2022/07/16 06:08:46;;;;;;;3.03;0.80;;;17.70;99.90;;;;;;4992043;28;20076;-67
2022/07/16 06:11:12;;;;;;;2.42;1.05;;;17.80;99.90;;;;;;4991131;28;20047;-67
2022/07/16 06:13:38;;;;;;;5.95;0.85;;;17.90;99.90;;;;;;4991480;28;20039;-67
2022/07/16 06:16:06;;;;;;;3.35;1.08;;;17.90;99.60;;;;;;4991848;28;20034;-67
2022/07/16 06:18:32;;;;;;;4.25;0.70;;;18.00;99.40;;;;;;4990921;28;20487;-67
2022/07/16 06:20:58;;;;;;;4.30;1.45;;;17.90;99.30;;;;;;4991480;28;20113;-68
2022/07/16 06:23:23;;;;;;;2.30;0.68;;;18.00;99.00;;;;;;5006872;28;20037;-67
2022/07/16 06:25:49;;;;;;;5.88;1.10;;;17.90;98.70;;;;;;4993435;28;20391;-67
2022/07/16 06:28:14;;;;;;;4.65;0.90;;;17.90;98.60;;;;;;5011055;28;20029;-68
2022/07/16 06:30:40;;;;;;;4.05;1.00;;;18.10;98.50;;;;;;5010726;28;20026;-67
2022/07/16 06:33:05;;;;;;;2.03;0.90;;;18.20;98.40;;;;;;5011342;28;20467;-67
2022/07/16 06:35:31;;;;;;;1.55;0.95;;;19.30;98.40;;;;;;5010398;28;20515;-67
2022/07/16 06:37:56;;;;;;;4.82;1.55;;;18.30;97.90;;;;;;5011273;28;20045;-67
2022/07/16 06:40:22;;;;;;;5.60;1.33;;;18.30;97.70;;;;;;5010906;28;20022;-67
2022/07/16 06:42:48;;;;;;;5.50;1.08;;;18.30;97.50;;;;;;5010645;28;20030;-67
2022/07/16 06:45:13;;;;;;;5.90;0.95;;;18.40;97.30;;;;;;5010700;28;20070;-67
2022/07/16 06:47:39;;;;;;;4.20;1.23;;;18.40;97.20;;;;;;4998298;28;20491;-68
2022/07/16 06:50:05;;;;;;;1.73;0.80;;;18.60;97.00;;;;;;5010653;28;20022;-68
2022/07/16 06:52:31;;;;;;;1.17;0.63;;;18.70;96.30;;;;;;5008595;28;20046;-67
2022/07/16 06:54:56;;;;;;;4.43;0.70;;;18.60;96.00;;;;;;4990836;28;20015;-67
2022/07/16 06:57:22;;;;;;;3.13;0.95;;;19.60;96.10;;;;;;4982886;28;20029;-68
2022/07/16 06:59:48;;;;;;;3.22;0.88;;;18.80;95.70;;;;;;4998408;28;20393;-68
2022/07/16 07:02:14;;;;;;;4.18;1.00;;;19.00;95.60;;;;;;4985298;28;20041;-67
2022/07/16 07:04:40;;;;;;;2.15;0.77;;;19.10;95.40;;;;;;4993363;28;20018;-68
2022/07/16 07:07:05;;;;;;;2.95;1.00;;;19.30;95.30;;;;;;4991239;28;20031;-68
2022/07/16 07:09:31;;;;;;;2.95;1.10;;;19.40;95.20;;;;;;4989750;28;20027;-68
2022/07/16 07:11:56;;;;;;;3.65;0.70;;;19.20;95.20;;;;;;4990724;28;20030;-68
2022/07/16 07:14:22;;;;;;;2.25;0.63;;;19.10;95.10;;;;;;4990224;28;20125;-68
2022/07/16 07:16:47;;;;;;;3.50;0.70;;;18.90;95.10;;;;;;4990222;28;20033;-68
2022/07/16 07:19:13;;;;;;;2.50;0.80;;;19.20;95.20;;;;;;4990073;28;20035;-68
2022/07/16 07:21:38;;;;;;;4.53;1.30;;;18.80;94.90;;;;;;4997852;28;20136;-68
2022/07/16 07:24:05;;;;;;;1.85;0.80;;;19.30;95.20;;;;;;5005404;28;20505;-68
2022/07/16 07:26:31;;;;;;;3.78;0.73;;;18.60;95.00;;;;;;4990458;28;20065;-67
2022/07/16 07:28:56;;;;;;;2.13;0.68;;;18.50;95.10;;;;;;4990025;28;20045;-68
2022/07/16 07:31:22;;;;;;;1.77;0.50;;;18.50;95.10;;;;;;4990205;28;20038;-67
2022/07/16 07:33:48;;;;;;;3.33;0.70;;;18.40;99.90;;;;;;4994587;28;20021;-68
2022/07/16 07:36:13;;;;;;;1.90;0.60;;;18.60;94.00;;;;;;4990490;28;20037;-68
2022/07/16 07:38:39;;;;;;;2.55;0.80;;;18.60;93.60;;;;;;4990363;28;20015;-68
2022/07/16 07:41:04;;;;;;;1.40;0.40;;;18.60;93.10;;;;;;4990579;28;20375;-68
2022/07/16 07:43:30;;;;;;;2.38;0.70;;;18.80;92.50;;;;;;4992259;28;20031;-67
2022/07/16 07:45:55;;;;;;;3.05;0.60;;;18.80;92.30;;;;;;4989898;28;20023;-68
2022/07/16 07:48:22;;;;;;;2.22;0.50;;;18.90;91.40;;;;;;4989560;28;20023;-68
2022/07/16 07:50:47;;;;;;;3.92;0.70;;;18.90;91.10;;;;;;4989965;28;20056;-68
2022/07/16 07:53:13;;;;;;;1.58;0.40;;;19.10;90.30;;;;;;5005574;28;20101;-68
2022/07/16 07:55:38;;;;;;;3.40;0.50;;;19.10;90.20;;;;;;4997123;28;20482;-68
2022/07/16 07:58:05;;;;;;;3.65;1.02;;;19.20;90.10;;;;;;4990249;28;20026;-68
2022/07/16 08:00:31;;;;;;;2.97;0.80;;;19.10;90.00;;;;;;4990105;28;20022;-68
2022/07/16 08:02:57;;;;;;;1.30;0.50;;;19.10;89.90;;;;;;4990430;28;20053;-68
2022/07/16 08:05:22;;;;;;;3.58;0.90;;;19.00;89.80;;;;;;4990011;28;20076;-68
2022/07/16 08:07:48;;;;;;;4.82;0.68;;;18.90;89.70;;;;;;5005694;28;20034;-68
2022/07/16 08:10:14;;;;;;;1.33;0.65;;;18.90;89.50;;;;;;4990288;28;20022;-68
2022/07/16 08:12:40;;;;;;;5.38;1.27;;;20.30;90.10;;;;;;4989882;28;20392;-70
2022/07/16 08:15:08;;;;;;;2.63;0.85;;;18.80;89.50;;;;;;4995956;28;20046;-68
2022/07/16 08:17:34;;;;;;;1.85;0.40;;;19.20;89.10;;;;;;5004018;28;20040;-67
2022/07/16 08:19:59;;;;;;;1.67;0.80;;;19.20;89.20;;;;;;5006115;28;20026;-69
2022/07/16 08:22:25;;;;;;;1.50;0.50;;;19.40;88.80;;;;;;5003785;28;20068;-68
2022/07/16 08:27:36;;;;;;;2.58;0.50;;;19.60;85.60;;;;;;4990059;28;20117;-67
2022/07/16 08:30:02;;;;;;;2.00;0.93;;;19.80;87.30;;;;;;4990004;28;20113;-68
2022/07/16 08:32:27;;;;;;;2.88;0.70;;;19.90;86.90;;;;;;4989875;28;20053;-68
2022/07/16 08:34:53;;;;;;;3.08;0.70;;;19.90;86.70;;;;;;4995559;28;20030;-67
2022/07/16 08:37:37;;;;;;;2.25;0.82;;;20.00;86.40;;;;;;4997049;28;20097;-67
2022/07/16 08:40:09;;;;;;;2.40;0.77;;;20.10;85.50;;;;;;4993815;28;20495;-68
2022/07/16 08:42:36;;;;;;;1.70;0.50;;;20.00;87.10;;;;;;4993366;28;20023;-68
2022/07/16 08:45:05;;;;;;;4.75;0.98;;;20.00;87.30;;;;;;4991161;28;20060;-68
2022/07/16 08:47:32;;;;;;;2.35;0.65;;;19.90;86.80;;;;;;4992997;28;20663;-67
2022/07/16 08:50:14;;;;;;;3.08;0.95;;;19.80;87.50;;;;;;4993551;28;20030;-67
2022/07/16 08:52:47;;;;;;;2.78;0.60;;;20.00;88.20;;;;;;4996248;28;20042;-68
2022/07/16 08:55:13;;;;;;;3.53;0.82;;;19.90;87.30;;;;;;4993439;28;20026;-68
2022/07/16 08:57:40;;;;;;;3.05;0.80;;;19.80;85.90;;;;;;4992278;28;20034;-67
2022/07/16 09:00:11;;;;;;;3.40;0.63;;;19.90;86.00;;;;;;4998158;28;20021;-67
2022/07/16 09:02:36;;;;;;;3.20;0.70;;;20.00;85.30;;;;;;5008261;28;20033;-67
2022/07/16 09:05:03;;;;;;;2.28;0.50;;;20.00;85.10;;;;;;5006461;28;20022;-67
2022/07/16 09:07:29;;;;;;;0.93;0.47;;;19.90;85.10;;;;;;5008132;28;20022;-67
2022/07/16 09:09:55;;;;;;;2.70;0.70;;;20.70;85.60;;;;;;5007129;28;20021;-68
2022/07/16 09:12:34;;;;;;;2.40;0.50;;;19.80;84.20;;;;;;4996988;28;20173;-67
2022/07/16 09:15:20;;;;;;;4.10;0.98;;;19.70;84.30;;;;;;4989796;28;20464;-67
2022/07/16 09:17:46;;;;;;;0.88;0.57;;;19.50;83.30;;;;;;4996842;28;20487;-67
2022/07/16 09:20:29;;;;;;;2.97;0.60;;;20.20;83.70;;;;;;5004690;28;20018;-68
2022/07/16 09:22:54;;;;;;;1.65;0.63;;;19.60;84.00;;;;;;5001615;28;20038;-68
2022/07/16 09:25:20;;;;;;;3.00;0.50;;;21.40;83.20;;;;;;5001037;28;20113;-68
2022/07/16 09:27:45;;;;;;;2.78;0.40;;;20.30;82.00;;;;;;5003306;28;20104;-67
2022/07/16 09:30:22;;;;;;;1.05;0.47;;;20.20;81.70;;;;;;5002557;28;20500;-68
2022/07/16 09:32:48;;;;;;;2.25;0.60;;;20.20;82.60;;;;;;4986378;28;20034;-67
2022/07/16 09:35:15;;;;;;;1.90;0.38;;;20.00;81.60;;;;;;4990787;28;20038;-68
2022/07/16 09:37:58;;;;;;;2.53;0.40;;;19.90;81.80;;;;;;5003864;28;20056;-68
2022/07/16 09:40:46;;;;;;;1.73;0.40;;;20.00;80.50;;;;;;5008752;28;20119;-67
2022/07/16 09:43:12;;;;;;;3.38;0.40;;;20.00;80.80;;;;;;4990366;28;20027;-68
2022/07/16 09:45:39;;;;;;;4.20;0.50;;;20.00;81.50;;;;;;4990937;28;20056;-68
2022/07/16 09:48:22;;;;;;;1.67;0.40;;;20.10;81.00;;;;;;4991892;28;20391;-68
2022/07/16 09:50:48;;;;;;;1.15;0.40;;;20.00;82.10;;;;;;4997394;28;20088;-68
2022/07/16 09:53:15;;;;;;;1.65;0.80;;;20.00;80.70;;;;;;4992593;28;20072;-68
2022/07/16 09:56:02;;;;;;;1.08;0.40;;;20.00;80.00;;;;;;4993174;28;20027;-68
2022/07/16 09:58:27;;;;;;;2.33;0.40;;;20.00;78.00;;;;;;4989494;28;20442;-68
2022/07/16 10:00:53;;;;;;;2.15;0.50;;;19.90;78.60;;;;;;4998797;28;20031;-68
2022/07/16 10:03:20;;;;;;;3.63;0.30;;;20.10;78.80;;;;;;5000894;28;20056;-67
2022/07/16 10:05:46;;;;;;;2.63;0.50;;;20.20;78.50;;;;;;4996931;28;20499;-67
2022/07/16 10:08:13;;;;;;;1.65;0.40;;;20.10;77.90;;;;;;4991586;28;20057;-67
2022/07/16 10:10:38;;;;;;;3.30;0.85;;;20.20;78.20;;;;;;4991315;28;20049;-67
2022/07/16 10:13:04;;;;;;;3.53;0.43;;;20.00;77.80;;;;;;4991134;28;20129;-67
2022/07/16 10:15:30;;;;;;;1.40;0.85;;;21.40;77.90;;;;;;4991323;28;20565;-67
2022/07/16 10:17:55;;;;;;;2.85;0.70;;;20.20;75.60;;;;;;5003925;28;20059;-68
2022/07/16 10:20:21;;;;;;;2.03;0.70;;;20.30;74.90;;;;;;4992109;28;20022;-68
2022/07/16 10:22:49;;;;;;;2.33;0.47;;;21.40;76.00;;;;;;4998068;28;20034;-67
2022/07/16 10:25:18;;;;;;;2.53;0.40;;;20.50;76.50;;;;;;5010915;28;20034;-68
2022/07/16 10:27:45;;;;;;;1.30;0.40;;;20.60;76.40;;;;;;4986056;28;20034;-68
2022/07/16 10:30:17;;;;;;;3.78;0.50;;;21.20;76.20;;;;;;4993185;28;20031;-67
2022/07/16 10:33:03;;;;;;;2.00;0.45;;;20.70;73.80;;;;;;4991197;28;20542;-68
2022/07/16 10:35:40;;;;;;;2.78;0.50;;;20.60;76.40;;;;;;4997335;28;20073;-67
2022/07/16 10:38:06;;;;;;;2.10;0.45;;;20.60;74.50;;;;;;4995777;28;20029;-67
2022/07/16 10:40:32;;;;;;;2.08;0.40;;;20.60;75.40;;;;;;4995460;28;20383;-67
2022/07/16 10:43:18;;;;;;;2.85;0.40;;;20.60;75.40;;;;;;4990939;28;20026;-68
2022/07/16 10:45:54;;;;;;;3.85;0.40;;;20.70;76.60;;;;;;4990534;28;20046;-69
2022/07/16 10:48:29;;;;;;;1.67;0.32;;;21.00;76.20;;;;;;4990418;28;20022;-68
2022/07/16 10:51:18;;;;;;;4.07;0.57;;;20.80;73.60;;;;;;4994820;28;20026;-68
2022/07/16 10:53:57;;;;;;;2.75;1.10;;;20.90;74.40;;;;;;4996295;28;20038;-68
2022/07/16 10:56:42;;;;;;;1.52;0.40;;;21.00;76.50;;;;;;5003728;28;20105;-68
2022/07/16 10:59:10;;;;;;;1.13;0.30;;;21.00;75.90;;;;;;5004300;28;20089;-68
2022/07/16 11:01:37;;;;;;;2.72;0.68;;;21.40;75.10;;;;;;5007841;28;20026;-68
2022/07/16 11:04:04;;;;;;;1.17;0.38;;;21.10;74.00;;;;;;5003903;28;20036;-68
2022/07/16 11:06:30;;;;;;;2.40;0.52;;;21.30;73.80;;;;;;4998542;28;20038;-68
2022/07/16 11:08:56;;;;;;;1.80;0.40;;;21.40;73.30;;;;;;4990460;28;20029;-68
2022/07/16 11:11:22;;;;;;;4.60;0.77;;;21.50;73.70;;;;;;4985010;28;20507;-69
2022/07/16 11:13:52;;;;;;;1.80;0.55;;;21.50;73.00;;;;;;4995514;28;20046;-70
2022/07/16 11:16:18;;;;;;;1.45;0.40;;;;;;;;;;5005758;28;20035;-69
2022/07/16 11:18:44;;;;;;;1.95;0.50;;;21.60;71.20;;;;;;5006425;28;20042;-69
2022/07/16 11:21:10;;;;;;;2.88;0.63;;;21.40;74.10;;;;;;5003303;28;20072;-69
2022/07/16 11:23:55;;;;;;;4.38;0.50;;;21.80;75.20;;;;;;5001378;28;20065;-68
2022/07/16 11:26:22;;;;;;;1.67;0.40;;;21.80;75.00;;;;;;5005161;28;20022;-67
2022/07/16 11:28:56;;;;;;;5.10;0.50;;;21.80;72.80;;;;;;5007636;28;20022;-67
2022/07/16 11:31:27;;;;;;;0.88;0.47;;;21.70;72.50;;;;;;5005155;28;20044;-68
2022/07/16 11:33:58;;;;;;;1.98;0.30;;;21.80;72.60;;;;;;5004365;28;20030;-67
2022/07/16 11:36:28;;;;;;;7.25;0.57;;;21.80;71.10;;;;;;5002378;28;20033;-67
2022/07/16 11:39:20;;;;;;;1.75;0.52;;;21.70;73.00;;;;;;5003834;28;20018;-67
2022/07/16 11:41:49;;;;;;;2.67;0.50;;;21.70;71.50;;;;;;5000066;28;20026;-67
2022/07/16 11:44:19;;;;;;;2.40;0.50;;;21.60;72.50;;;;;;5004708;28;20030;-67
2022/07/16 11:46:45;;;;;;;4.03;0.45;;;21.60;70.50;;;;;;5002827;28;20057;-68
2022/07/16 11:49:19;;;;;;;2.55;0.52;;;21.40;72.00;;;;;;5002359;28;20026;-67
2022/07/16 11:51:45;;;;;;;5.75;0.73;;;21.50;71.60;;;;;;4995665;28;20034;-67
2022/07/16 11:54:11;;;;;;;3.67;0.60;;;21.50;71.00;;;;;;4989492;28;20023;-67
2022/07/16 11:56:39;;;;;;;2.63;0.40;;;21.50;70.30;;;;;;4990056;28;20034;-67
2022/07/16 11:59:17;;;;;;;3.08;0.20;;;21.50;71.20;;;;;;4990052;28;20113;-67
2022/07/16 12:01:43;;;;;;;3.53;0.50;;;21.40;72.10;;;;;;4978440;28;20038;-67
2022/07/16 12:04:08;;;;;;;1.50;0.45;;;21.50;71.50;;;;;;5003915;28;20029;-67
2022/07/16 12:06:35;;;;;;;2.65;0.40;;;21.70;71.30;;;;;;5004388;28;20041;-68
2022/07/16 12:09:01;;;;;;;1.83;0.35;;;21.80;71.80;;;;;;5009751;28;20037;-67
2022/07/16 12:11:33;;;;;;;3.00;0.57;;;21.80;71.70;;;;;;5009146;28;20096;-67
2022/07/16 12:13:59;;;;;;;3.50;0.70;;;21.80;72.40;;;;;;4993604;28;20038;-67
2022/07/16 12:16:26;;;;;;;2.90;0.90;;;21.70;72.00;;;;;;5006663;28;20108;-67
2022/07/16 12:19:18;;;;;;;4.10;0.80;;;22.00;72.30;;;;;;4993859;28;20780;-67
2022/07/16 12:21:48;;;;;;;2.55;0.55;;;22.10;72.20;;;;;;5002364;28;20062;-67
2022/07/16 12:24:13;;;;;;;2.90;0.40;;;22.10;71.00;;;;;;4991952;28;20022;-67
2022/07/16 12:26:40;;;;;;;4.95;0.55;;;22.00;70.80;;;;;;4997775;28;20035;-68
2022/07/16 12:29:08;;;;;;;2.22;0.40;;;21.80;72.10;;;;;;4993158;28;20076;-66
2022/07/16 12:31:35;;;;;;;2.45;0.52;;;21.60;72.70;;;;;;4992025;28;20121;-67
2022/07/16 12:34:02;;;;;;;3.72;0.60;;;21.60;72.40;;;;;;4979384;28;20030;-68
2022/07/16 12:36:37;;;;;;;2.03;0.28;;;21.70;71.60;;;;;;5002248;28;20037;-67
2022/07/16 12:39:08;;;;;;;1.90;0.50;;;21.90;69.40;;;;;;4999025;28;20117;-67
2022/07/16 12:41:40;;;;;;;3.15;0.43;;;21.90;71.30;;;;;;4992119;28;20368;-67
2022/07/16 12:44:13;;;;;;;1.92;0.30;;;22.20;69.20;;;;;;4992312;28;20173;-68
2022/07/16 12:46:41;;;;;;;4.93;1.08;;;22.20;68.20;;;;;;4992812;28;20078;-67
2022/07/16 12:49:09;;;;;;;2.90;0.55;;;22.10;70.00;;;;;;5000382;28;20161;-67
2022/07/16 12:51:39;;;;;;;2.63;0.57;;;22.00;70.60;;;;;;4992446;28;20069;-67
2022/07/16 12:54:06;;;;;;;1.63;0.30;;;22.00;70.70;;;;;;4992875;28;20026;-67
2022/07/16 12:59:18;;;;;;;3.38;0.43;;;22.10;70.40;;;;;;4988404;28;20096;-67
2022/07/16 13:01:44;;;;;;;3.33;0.45;;;22.20;70.60;;;;;;4995571;28;20172;-67